createdAt,value
2022-12-15T00:02:19.491Z,20.85
2022-12-15T00:05:05.287Z,20.85
2022-12-15T00:07:50.194Z,20.84
2022-12-15T00:10:35.911Z,20.84
2022-12-15T00:13:20.865Z,20.83
2022-12-15T00:16:13.246Z,20.81
2022-12-15T00:19:00.930Z,20.80
2022-12-15T00:21:46.328Z,20.80
2022-12-15T00:24:31.325Z,20.77
2022-12-15T00:27:16.482Z,20.76
2022-12-15T00:30:01.503Z,20.75
2022-12-15T00:32:46.606Z,20.72
2022-12-15T00:35:31.732Z,20.71
2022-12-15T00:38:16.911Z,20.68
2022-12-15T00:40:43.568Z,20.65
2022-12-15T00:43:12.288Z,20.63
2022-12-15T00:45:57.393Z,20.61
2022-12-15T00:48:24.036Z,20.59
2022-12-15T00:50:53.471Z,20.56
2022-12-15T00:53:39.316Z,20.54
2022-12-15T00:56:24.991Z,20.50
2022-12-15T00:59:10.003Z,20.48
2022-12-15T01:01:55.144Z,20.44
2022-12-15T01:04:40.667Z,20.40
2022-12-15T01:07:25.684Z,20.37
2022-12-15T01:10:11.294Z,20.34
2022-12-15T01:12:59.121Z,20.30
2022-12-15T01:15:50.980Z,20.26
2022-12-15T01:18:44.137Z,20.22
2022-12-15T01:21:16.387Z,20.19
2022-12-15T01:23:43.057Z,20.15
2022-12-15T01:26:09.757Z,20.13
2022-12-15T01:28:36.440Z,20.10
2022-12-15T01:31:15.693Z,20.06
2022-12-15T01:33:44.976Z,20.02
2022-12-15T01:36:11.859Z,19.97
2022-12-15T01:38:38.591Z,19.91
2022-12-15T01:41:06.422Z,19.88
2022-12-15T01:43:35.973Z,19.84
2022-12-15T01:46:04.314Z,19.79
2022-12-15T01:48:35.768Z,19.73
2022-12-15T01:51:17.514Z,19.71
2022-12-15T01:53:50.233Z,19.65
2022-12-15T01:56:17.853Z,19.60
2022-12-15T01:58:45.972Z,19.56
2022-12-15T02:01:15.816Z,19.52
2022-12-15T02:03:43.813Z,19.50
2022-12-15T02:06:10.773Z,19.47
2022-12-15T02:08:38.103Z,19.42
2022-12-15T02:11:19.162Z,19.37
2022-12-15T02:13:49.752Z,19.31
2022-12-15T02:16:16.520Z,19.30
2022-12-15T02:19:03.405Z,19.26
2022-12-15T02:21:34.103Z,19.23
2022-12-15T02:24:13.121Z,19.20
2022-12-15T02:26:52.161Z,19.14
2022-12-15T02:29:37.761Z,19.08
2022-12-15T02:32:07.380Z,19.03
2022-12-15T02:34:43.247Z,19.00
2022-12-15T02:37:42.157Z,18.95
2022-12-15T02:40:10.488Z,18.90
2022-12-15T02:42:41.429Z,18.87
2022-12-15T02:45:12.291Z,18.83
2022-12-15T02:47:46.374Z,18.80
2022-12-15T02:50:31.840Z,18.76
2022-12-15T02:52:58.538Z,18.71
2022-12-15T02:55:50.179Z,18.65
2022-12-15T02:58:19.839Z,18.62
2022-12-15T03:00:58.107Z,18.59
2022-12-15T03:03:25.549Z,18.55
2022-12-15T03:05:57.477Z,18.51
2022-12-15T03:08:24.668Z,18.48
2022-12-15T03:10:53.237Z,18.43
2022-12-15T03:13:20.389Z,18.41
2022-12-15T03:15:52.941Z,18.37
2022-12-15T03:18:25.016Z,18.36
2022-12-15T03:20:51.710Z,18.34
2022-12-15T03:23:18.325Z,18.30
2022-12-15T03:25:46.329Z,18.27
2022-12-15T03:28:16.607Z,18.22
2022-12-15T03:30:43.202Z,18.20
2022-12-15T03:33:11.429Z,18.18
2022-12-15T03:35:38.095Z,18.15
2022-12-15T03:38:04.738Z,18.12
2022-12-15T03:40:31.571Z,18.09
2022-12-15T03:42:58.983Z,18.06
2022-12-15T03:45:26.895Z,18.02
2022-12-15T03:47:54.286Z,17.99
2022-12-15T03:50:22.914Z,17.96
2022-12-15T03:52:53.465Z,17.94
2022-12-15T03:55:21.092Z,17.91
2022-12-15T03:57:48.047Z,17.87
2022-12-15T04:00:15.334Z,17.84
2022-12-15T04:02:42.629Z,17.80
2022-12-15T04:05:13.834Z,17.77
2022-12-15T04:07:40.420Z,17.75
2022-12-15T04:10:07.106Z,17.73
2022-12-15T04:12:37.091Z,17.70
2022-12-15T04:15:03.827Z,17.67
2022-12-15T04:17:30.419Z,17.62
2022-12-15T04:20:12.266Z,17.60
2022-12-15T04:22:43.042Z,17.57
2022-12-15T04:25:32.238Z,17.55
2022-12-15T04:28:17.776Z,17.53
2022-12-15T04:31:13.904Z,17.51
2022-12-15T04:34:01.097Z,17.46
2022-12-15T04:36:47.029Z,17.44
2022-12-15T04:39:32.041Z,17.41
2022-12-15T04:42:19.522Z,17.37
2022-12-15T04:45:05.611Z,17.34
2022-12-15T04:47:50.828Z,17.30
2022-12-15T04:50:35.869Z,17.28
2022-12-15T04:53:32.609Z,17.25
2022-12-15T04:56:18.907Z,17.21
2022-12-15T04:59:04.528Z,17.19
2022-12-15T05:01:49.749Z,17.16
2022-12-15T05:04:35.068Z,17.14
2022-12-15T05:07:20.101Z,17.14
2022-12-15T05:10:09.550Z,17.10
2022-12-15T05:13:01.041Z,17.07
2022-12-15T05:15:53.648Z,17.04
2022-12-15T05:18:42.057Z,17.01
2022-12-15T05:21:31.369Z,17.02
2022-12-15T05:24:16.442Z,17.03
2022-12-15T05:27:01.624Z,17.04
2022-12-15T05:29:46.660Z,17.08
2022-12-15T05:32:13.384Z,17.13
2022-12-15T05:34:39.958Z,17.16
2022-12-15T05:37:07.538Z,17.18
2022-12-15T05:39:34.244Z,17.22
2022-12-15T05:42:00.903Z,17.24
2022-12-15T05:44:28.430Z,17.27
2022-12-15T05:46:55.062Z,17.33
2022-12-15T05:49:23.496Z,17.38
2022-12-15T05:51:50.421Z,17.42
2022-12-15T05:54:18.430Z,17.47
2022-12-15T05:56:45.676Z,17.52
2022-12-15T05:59:12.660Z,17.56
2022-12-15T06:01:39.911Z,17.61
2022-12-15T06:04:07.644Z,17.65
2022-12-15T06:06:34.432Z,17.71
2022-12-15T06:09:01.082Z,17.76
2022-12-15T06:11:27.722Z,17.81
2022-12-15T06:13:59.271Z,17.85
2022-12-15T06:16:28.356Z,17.91
2022-12-15T06:18:56.251Z,17.94
2022-12-15T06:21:24.400Z,17.99
2022-12-15T06:23:51.185Z,18.04
2022-12-15T06:26:22.459Z,18.08
2022-12-15T06:28:49.898Z,18.13
2022-12-15T06:31:18.186Z,18.18
2022-12-15T06:33:44.985Z,18.22
2022-12-15T06:36:13.079Z,18.28
2022-12-15T06:38:40.022Z,18.31
2022-12-15T06:41:09.906Z,18.37
2022-12-15T06:43:36.476Z,18.40
2022-12-15T06:46:03.820Z,18.45
2022-12-15T06:48:30.619Z,18.49
2022-12-15T06:50:57.473Z,18.53
2022-12-15T06:53:24.534Z,18.57
2022-12-15T06:55:51.196Z,18.61
2022-12-15T06:58:18.435Z,18.65
2022-12-15T07:00:46.788Z,18.71
2022-12-15T07:03:15.699Z,18.75
2022-12-15T07:06:06.086Z,18.77
2022-12-15T07:08:38.043Z,18.82
2022-12-15T07:11:18.575Z,18.87
2022-12-15T07:13:50.928Z,18.90
2022-12-15T07:16:18.032Z,18.94
2022-12-15T07:18:44.860Z,18.99
2022-12-15T07:21:14.310Z,19.02
2022-12-15T07:23:54.199Z,19.05
2022-12-15T07:26:21.907Z,19.08
2022-12-15T07:28:48.601Z,19.10
2022-12-15T07:31:20.181Z,19.12
2022-12-15T07:33:48.626Z,19.16
2022-12-15T07:36:15.517Z,19.17
2022-12-15T07:38:42.137Z,19.20
2022-12-15T07:41:12.779Z,19.21
2022-12-15T07:43:39.526Z,19.23
2022-12-15T07:46:06.505Z,19.25
2022-12-15T07:48:33.649Z,19.27
2022-12-15T07:51:11.029Z,19.30
2022-12-15T07:53:42.582Z,19.19
2022-12-15T07:56:12.016Z,19.10
2022-12-15T07:58:39.258Z,19.17
2022-12-15T08:01:08.100Z,19.18
2022-12-15T08:03:36.216Z,19.19
2022-12-15T08:06:05.138Z,19.21
2022-12-15T08:08:32.538Z,19.22
2022-12-15T08:11:00.123Z,19.22
2022-12-15T08:14:00.731Z,19.23
2022-12-15T08:16:14.182Z,19.23
2022-12-15T08:18:41.340Z,19.25
2022-12-15T08:21:10.984Z,19.25
2022-12-15T08:23:38.808Z,19.26
2022-12-15T08:26:08.038Z,19.28
2022-12-15T08:28:35.960Z,19.30
2022-12-15T08:31:09.006Z,19.32
2022-12-15T08:33:36.381Z,19.36
2022-12-15T08:36:05.278Z,19.37
2022-12-15T08:38:32.326Z,19.39
2022-12-15T08:41:08.584Z,19.41
2022-12-15T08:43:36.080Z,19.43
2022-12-15T08:46:03.077Z,19.44
2022-12-15T08:48:30.574Z,19.45
2022-12-15T08:51:00.505Z,19.46
2022-12-15T08:53:32.084Z,19.48
2022-12-15T08:56:07.462Z,19.50
2022-12-15T08:58:34.392Z,19.52
2022-12-15T09:01:25.980Z,19.53
2022-12-15T09:03:54.194Z,19.56
2022-12-15T09:06:40.379Z,19.57
2022-12-15T09:09:10.923Z,19.60
2022-12-15T09:11:37.913Z,19.62
2022-12-15T09:14:05.217Z,19.65
2022-12-15T09:16:32.565Z,19.66
2022-12-15T09:19:00.881Z,19.68
2022-12-15T09:21:28.907Z,19.70
2022-12-15T09:24:00.864Z,19.72
2022-12-15T09:26:28.991Z,19.74
2022-12-15T09:28:57.143Z,19.77
2022-12-15T09:31:30.846Z,19.78
2022-12-15T09:34:00.302Z,19.79
2022-12-15T09:36:27.568Z,19.82
2022-12-15T09:38:54.777Z,19.83
2022-12-15T09:41:24.048Z,19.84
2022-12-15T09:43:55.899Z,19.85
2022-12-15T09:46:35.248Z,19.86
2022-12-15T09:49:03.729Z,19.88
2022-12-15T09:51:35.539Z,19.89
2022-12-15T09:54:03.113Z,19.88
2022-12-15T09:56:40.022Z,19.88
2022-12-15T09:59:17.157Z,19.88
2022-12-15T10:01:48.278Z,19.87
2022-12-15T10:04:24.866Z,19.86
2022-12-15T10:07:05.299Z,19.86
2022-12-15T10:09:32.269Z,19.84
2022-12-15T10:12:02.559Z,19.84
2022-12-15T10:14:38.776Z,19.84
2022-12-15T10:17:17.553Z,19.82
2022-12-15T10:19:50.161Z,19.81
2022-12-15T10:22:22.021Z,19.79
2022-12-15T10:27:46.885Z,19.76
2022-12-15T10:30:16.525Z,19.75
2022-12-15T10:32:50.957Z,19.73
2022-12-15T10:35:22.339Z,19.71
2022-12-15T10:37:50.081Z,19.69
2022-12-15T10:40:19.040Z,19.67
2022-12-15T10:42:48.325Z,19.65
2022-12-15T10:45:24.831Z,19.63
2022-12-15T10:48:00.186Z,19.61
2022-12-15T10:50:27.864Z,19.59
2022-12-15T10:52:55.166Z,19.57
2022-12-15T10:55:31.693Z,19.53
2022-12-15T10:58:00.251Z,19.50
2022-12-15T11:00:29.902Z,19.47
2022-12-15T11:03:43.392Z,19.45
2022-12-15T11:06:19.779Z,19.40
2022-12-15T11:08:47.799Z,19.36
2022-12-15T11:11:27.553Z,19.34
2022-12-15T11:14:07.634Z,19.30
2022-12-15T11:16:34.581Z,19.28
2022-12-15T11:19:13.698Z,19.24
2022-12-15T11:21:45.112Z,19.20
2022-12-15T11:24:17.904Z,19.18
2022-12-15T11:26:54.746Z,19.14
2022-12-15T11:29:34.780Z,19.09
2022-12-15T11:32:06.910Z,19.08
2022-12-15T11:34:37.020Z,19.03
2022-12-15T11:37:04.207Z,19.01
2022-12-15T11:39:42.300Z,18.97
2022-12-15T11:42:15.044Z,18.94
2022-12-15T11:44:49.070Z,18.92
2022-12-15T11:47:25.789Z,18.87
2022-12-15T11:50:07.792Z,18.85
2022-12-15T11:52:45.420Z,18.82
2022-12-15T11:55:29.192Z,18.79
2022-12-15T11:58:07.313Z,18.74
2022-12-15T12:00:38.004Z,18.72
2022-12-15T12:03:13.283Z,18.72
2022-12-15T12:05:47.599Z,18.71
2022-12-15T12:08:30.476Z,18.71
2022-12-15T12:11:05.301Z,18.71
2022-12-15T12:13:41.716Z,18.73
2022-12-15T12:16:09.690Z,18.76
2022-12-15T12:18:43.149Z,18.79
2022-12-15T12:21:15.423Z,18.81
2022-12-15T12:23:42.609Z,18.84
2022-12-15T12:26:16.006Z,18.88
2022-12-15T12:28:48.889Z,18.89
2022-12-15T12:31:27.369Z,18.93
2022-12-15T12:33:56.080Z,18.95
2022-12-15T12:36:23.641Z,18.99
2022-12-15T12:38:53.019Z,19.02
2022-12-15T12:41:29.679Z,19.05
2022-12-15T12:44:00.938Z,19.08
2022-12-15T12:46:28.272Z,19.13
2022-12-15T12:48:56.603Z,19.15
2022-12-15T12:51:24.763Z,19.18
2022-12-15T12:53:51.988Z,19.21
2022-12-15T12:56:28.748Z,19.25
2022-12-15T12:58:55.823Z,19.29
2022-12-15T13:01:32.923Z,19.33
2022-12-15T13:04:09.759Z,19.36
2022-12-15T13:06:36.870Z,19.40
2022-12-15T13:09:23.660Z,19.42
2022-12-15T13:11:51.994Z,19.46
2022-12-15T13:14:25.840Z,19.48
2022-12-15T13:17:25.347Z,19.49
2022-12-15T13:22:48.770Z,19.51
2022-12-15T13:25:26.874Z,19.51
2022-12-15T13:27:58.100Z,19.50
2022-12-15T13:30:25.291Z,19.50
2022-12-15T13:32:53.716Z,19.50
2022-12-15T13:35:26.547Z,19.50
2022-12-15T13:37:54.896Z,19.48
2022-12-15T13:40:35.554Z,19.48
2022-12-15T13:43:05.740Z,19.46
2022-12-15T13:45:36.287Z,19.46
2022-12-15T13:48:13.955Z,19.44
2022-12-15T13:50:45.245Z,19.43
2022-12-15T13:53:20.860Z,19.41
2022-12-15T13:56:00.907Z,19.40
2022-12-15T13:58:29.071Z,19.39
2022-12-15T14:00:57.377Z,19.37
2022-12-15T14:03:24.906Z,19.34
2022-12-15T14:05:56.969Z,19.32
2022-12-15T14:08:27.524Z,19.28
2022-12-15T14:10:56.290Z,19.25
2022-12-15T14:13:24.787Z,19.23
2022-12-15T14:15:54.924Z,19.21
2022-12-15T14:18:23.771Z,19.19
2022-12-15T14:20:50.820Z,19.16
2022-12-15T14:23:21.642Z,19.13
2022-12-15T14:25:57.309Z,19.12
2022-12-15T14:28:25.032Z,19.09
2022-12-15T14:30:52.103Z,19.07
2022-12-15T14:33:19.585Z,19.05
2022-12-15T14:35:49.547Z,19.03
2022-12-15T14:38:26.788Z,18.99
2022-12-15T14:40:56.547Z,18.95
2022-12-15T14:43:39.064Z,18.94
2022-12-15T14:46:09.457Z,18.88
2022-12-15T14:48:41.770Z,18.86
2022-12-15T14:51:11.074Z,18.82
2022-12-15T14:53:44.661Z,18.77
2022-12-15T14:56:14.281Z,18.74
2022-12-15T14:58:41.775Z,18.74
2022-12-15T15:03:10.065Z,19.50
2022-12-15T15:03:43.922Z,18.70
2022-12-15T15:06:12.321Z,18.72
2022-12-15T15:08:46.957Z,18.73
2022-12-15T15:11:28.391Z,18.75
2022-12-15T15:14:05.415Z,18.77
2022-12-15T15:16:32.610Z,18.77
2022-12-15T15:19:01.142Z,18.81
2022-12-15T15:21:29.218Z,18.83
2022-12-15T15:23:59.711Z,18.84
2022-12-15T15:26:27.315Z,18.86
2022-12-15T15:28:54.689Z,18.86
2022-12-15T15:31:30.216Z,18.89
2022-12-15T15:34:00.158Z,18.91
2022-12-15T15:36:31.004Z,18.94
2022-12-15T15:38:59.073Z,18.96
2022-12-15T15:41:30.261Z,18.98
2022-12-15T15:44:00.412Z,19.01
2022-12-15T15:46:30.550Z,19.03
2022-12-15T15:49:01.449Z,19.05
2022-12-15T15:56:31.231Z,19.12
2022-12-15T15:58:59.808Z,19.14
2022-12-15T16:01:26.845Z,19.16
2022-12-15T16:03:58.469Z,19.17
2022-12-15T16:06:25.408Z,19.19
2022-12-15T16:08:54.023Z,19.20
2022-12-15T16:11:22.406Z,19.23
2022-12-15T16:13:49.336Z,19.25
2022-12-15T16:16:23.597Z,19.27
2022-12-15T16:18:50.609Z,19.28
2022-12-15T16:21:18.252Z,19.30
2022-12-15T16:23:46.586Z,19.33
2022-12-15T16:26:15.504Z,19.36
2022-12-15T16:28:42.526Z,19.37
2022-12-15T16:31:14.836Z,19.39
2022-12-15T16:33:42.015Z,19.41
2022-12-15T16:36:16.032Z,19.44
2022-12-15T16:38:43.288Z,19.45
2022-12-15T16:41:13.566Z,19.47
2022-12-15T16:43:44.514Z,19.49
2022-12-15T16:46:16.204Z,19.51
2022-12-15T16:48:43.926Z,19.53
2022-12-15T16:51:18.214Z,19.55
2022-12-15T16:53:45.678Z,19.56
2022-12-15T16:56:14.473Z,19.58
2022-12-15T16:58:41.406Z,19.59
2022-12-15T17:01:10.398Z,19.62
2022-12-15T17:03:37.613Z,19.63
2022-12-15T17:06:07.007Z,19.65
2022-12-15T17:08:38.916Z,19.67
2022-12-15T17:11:06.606Z,19.68
2022-12-15T17:13:42.069Z,19.71
2022-12-15T17:16:14.701Z,19.69
2022-12-15T17:18:42.854Z,19.68
2022-12-15T17:21:14.272Z,19.68
2022-12-15T17:23:42.619Z,19.67
2022-12-15T17:26:29.730Z,19.67
2022-12-15T17:28:59.038Z,19.65
2022-12-15T17:31:31.531Z,19.65
2022-12-15T17:34:02.807Z,19.64
2022-12-15T17:36:29.687Z,19.64
2022-12-15T17:38:58.572Z,19.65
2022-12-15T17:41:50.699Z,19.67
2022-12-15T17:44:32.927Z,19.67
2022-12-15T17:47:02.071Z,19.67
2022-12-15T17:49:35.197Z,19.68
2022-12-15T17:52:05.506Z,19.69
2022-12-15T17:54:32.690Z,19.69
2022-12-15T17:57:00.261Z,19.70
2022-12-15T17:59:27.307Z,19.72
2022-12-15T18:01:57.504Z,19.74
2022-12-15T18:04:24.887Z,19.73
2022-12-15T18:06:58.072Z,19.75
2022-12-15T18:09:28.306Z,19.75
2022-12-15T18:11:55.231Z,19.77
2022-12-15T18:14:23.201Z,19.79
2022-12-15T18:16:50.359Z,19.80
2022-12-15T18:19:17.250Z,19.81
2022-12-15T18:21:44.116Z,19.81
2022-12-15T18:24:12.987Z,19.83
2022-12-15T18:26:40.095Z,19.84
2022-12-15T18:29:12.007Z,19.86
2022-12-15T18:31:38.962Z,19.86
2022-12-15T18:34:11.565Z,19.88
2022-12-15T18:36:38.729Z,19.88
2022-12-15T18:39:16.034Z,19.90
2022-12-15T18:41:44.186Z,19.92
2022-12-15T18:44:19.467Z,19.92
2022-12-15T18:46:48.072Z,19.92
2022-12-15T18:49:15.429Z,19.93
2022-12-15T18:51:42.470Z,19.91
2022-12-15T18:54:16.209Z,19.91
2022-12-15T18:56:43.169Z,19.91
2022-12-15T18:59:12.294Z,19.92
2022-12-15T19:01:39.345Z,19.92
2022-12-15T19:04:06.465Z,19.91
2022-12-15T19:06:36.239Z,19.90
2022-12-15T19:09:03.531Z,19.88
2022-12-15T19:11:31.384Z,19.87
2022-12-15T19:14:00.216Z,19.85
2022-12-15T19:16:27.636Z,19.84
2022-12-15T19:19:03.548Z,19.82
2022-12-15T19:21:41.465Z,19.82
2022-12-15T19:24:10.885Z,19.81
2022-12-15T19:26:40.630Z,19.82
2022-12-15T19:29:17.145Z,19.81
2022-12-15T19:31:44.386Z,19.83
2022-12-15T19:34:11.665Z,19.83
2022-12-15T19:36:38.704Z,19.84
2022-12-15T19:39:06.545Z,19.86
2022-12-15T19:41:38.435Z,19.87
2022-12-15T19:44:13.825Z,19.87
2022-12-15T19:46:41.506Z,19.90
2022-12-15T19:49:08.519Z,19.91
2022-12-15T19:51:35.779Z,19.91
2022-12-15T19:54:03.036Z,19.93
2022-12-15T19:56:30.185Z,19.95
2022-12-15T19:58:57.279Z,19.97
2022-12-15T20:01:24.360Z,19.99
2022-12-15T20:03:52.482Z,20.01
2022-12-15T20:06:21.140Z,20.03
2022-12-15T20:08:48.883Z,20.05
2022-12-15T20:11:17.585Z,20.07
2022-12-15T20:13:45.426Z,20.09
2022-12-15T20:16:12.383Z,20.11
2022-12-15T20:18:40.903Z,20.12
2022-12-15T20:21:09.769Z,20.14
2022-12-15T20:23:41.621Z,20.16
2022-12-15T20:26:08.485Z,20.18
2022-12-15T20:28:35.267Z,20.19
2022-12-15T20:31:03.324Z,20.20
2022-12-15T20:33:30.711Z,20.23
2022-12-15T20:35:57.869Z,20.25
2022-12-15T20:38:27.418Z,20.25
2022-12-15T20:40:55.145Z,20.27
2022-12-15T20:43:22.829Z,20.29
2022-12-15T20:45:57.844Z,20.31
2022-12-15T20:48:25.359Z,20.31
2022-12-15T20:50:53.044Z,20.33
2022-12-15T20:53:22.982Z,20.35
2022-12-15T20:55:50.994Z,20.37
2022-12-15T20:58:18.385Z,20.37
2022-12-15T21:00:45.901Z,20.39
2022-12-15T21:03:17.142Z,20.41
2022-12-15T21:05:44.185Z,20.42
2022-12-15T21:08:16.554Z,20.44
2022-12-15T21:10:43.560Z,20.46
2022-12-15T21:13:19.899Z,20.46
2022-12-15T21:15:47.231Z,20.48
2022-12-15T21:18:57.182Z,20.49
2022-12-15T21:21:01.740Z,20.51
2022-12-15T21:23:30.511Z,20.52
2022-12-15T21:25:58.448Z,20.55
2022-12-15T21:28:25.784Z,20.56
2022-12-15T21:30:53.046Z,20.57
2022-12-15T21:33:21.039Z,20.59
2022-12-15T21:35:48.314Z,20.61
2022-12-15T21:38:27.044Z,20.62
2022-12-15T21:43:44.319Z,20.64
2022-12-15T21:46:13.456Z,20.66
2022-12-15T21:48:50.489Z,20.67
2022-12-15T21:51:18.665Z,20.71
2022-12-15T21:53:46.486Z,20.71
2022-12-15T21:56:15.804Z,20.73
2022-12-15T21:58:44.534Z,20.74
2022-12-15T22:01:17.954Z,20.76
2022-12-15T22:03:47.323Z,20.78
2022-12-15T22:06:17.757Z,20.81
2022-12-15T22:08:44.476Z,20.82
2022-12-15T22:11:24.796Z,20.84
2022-12-15T22:13:52.614Z,20.86
2022-12-15T22:16:22.221Z,20.87
2022-12-15T22:18:50.336Z,20.89
2022-12-15T22:21:17.640Z,20.91
2022-12-15T22:23:45.291Z,20.92
2022-12-15T22:26:31.469Z,20.94
2022-12-15T22:29:02.097Z,20.96
2022-12-15T22:31:28.950Z,20.97
2022-12-15T22:33:55.677Z,20.99
2022-12-15T22:36:22.360Z,21.00
2022-12-15T22:38:48.955Z,21.02
2022-12-15T22:41:26.178Z,21.04
2022-12-15T22:43:55.177Z,21.05
2022-12-15T22:46:24.276Z,21.06
2022-12-15T22:48:52.489Z,21.08
2022-12-15T22:51:21.504Z,21.08
2022-12-15T22:53:48.282Z,21.10
2022-12-15T22:56:25.447Z,21.11
2022-12-15T22:58:55.031Z,21.13
2022-12-15T23:01:24.551Z,21.14
2022-12-15T23:03:51.985Z,21.15
2022-12-15T23:06:18.893Z,21.16
2022-12-15T23:08:45.571Z,21.17
2022-12-15T23:11:33.271Z,21.19
2022-12-15T23:13:59.902Z,21.20
2022-12-15T23:16:26.683Z,21.22
2022-12-15T23:18:54.820Z,21.24
2022-12-15T23:21:22.435Z,21.25
2022-12-15T23:23:49.281Z,21.26
2022-12-15T23:26:17.788Z,21.27
2022-12-15T23:28:45.198Z,21.30
2022-12-15T23:31:21.712Z,21.32
2022-12-15T23:33:48.804Z,21.33
2022-12-15T23:36:15.931Z,21.34
2022-12-15T23:38:43.003Z,21.35
2022-12-15T23:41:15.857Z,21.37
2022-12-15T23:43:43.004Z,21.39
2022-12-15T23:46:10.126Z,21.39
2022-12-15T23:48:38.529Z,21.42
2022-12-15T23:51:15.911Z,21.43
2022-12-15T23:53:43.885Z,21.44
2022-12-15T23:56:14.093Z,21.43
2022-12-15T23:58:42.116Z,21.43
